sensor_id;sensor_type;location;lat;lon;timestamp;pressure;altitude;pressure_sealevel;temperature;humidity
54144;BME280;40050;47.324;18.792;2022-09-29T00:00:28;989.23;;;16.63;73.41
54144;BME280;40050;47.324;18.792;2022-09-29T00:02:28;989.23;;;16.65;73.35
54144;BME280;40050;47.324;18.792;2022-09-29T00:04:29;989.19;;;16.64;73.40
54144;BME280;40050;47.324;18.792;2022-09-29T00:06:30;989.17;;;16.63;73.44
54144;BME280;40050;47.324;18.792;2022-09-29T00:08:31;989.17;;;16.64;73.38
54144;BME280;40050;47.324;18.792;2022-09-29T00:10:32;989.15;;;16.62;73.41
54144;BME280;40050;47.324;18.792;2022-09-29T00:12:33;989.15;;;16.63;73.36
54144;BME280;40050;47.324;18.792;2022-09-29T00:14:34;989.16;;;16.65;73.32
54144;BME280;40050;47.324;18.792;2022-09-29T00:16:35;989.09;;;16.60;73.35
54144;BME280;40050;47.324;18.792;2022-09-29T00:18:36;989.21;;;16.64;73.30
54144;BME280;40050;47.324;18.792;2022-09-29T00:20:37;989.17;;;16.59;73.32
54144;BME280;40050;47.324;18.792;2022-09-29T00:22:38;989.18;;;16.59;73.32
54144;BME280;40050;47.324;18.792;2022-09-29T00:24:39;989.13;;;16.57;73.30
54144;BME280;40050;47.324;18.792;2022-09-29T00:26:39;989.09;;;16.55;73.24
54144;BME280;40050;47.324;18.792;2022-09-29T00:28:46;989.02;;;16.49;73.16
54144;BME280;40050;47.324;18.792;2022-09-29T00:30:47;989.06;;;16.46;73.16
54144;BME280;40050;47.324;18.792;2022-09-29T00:32:48;989.03;;;16.42;73.14
54144;BME280;40050;47.324;18.792;2022-09-29T00:34:48;989.10;;;16.43;73.21
54144;BME280;40050;47.324;18.792;2022-09-29T00:36:49;989.09;;;16.41;73.23
54144;BME280;40050;47.324;18.792;2022-09-29T00:38:50;989.05;;;16.41;73.29
54144;BME280;40050;47.324;18.792;2022-09-29T00:40:51;989.00;;;16.41;73.34
54144;BME280;40050;47.324;18.792;2022-09-29T00:42:52;988.99;;;16.39;73.33
54144;BME280;40050;47.324;18.792;2022-09-29T00:44:58;989.04;;;16.38;73.33
54144;BME280;40050;47.324;18.792;2022-09-29T00:47:01;988.99;;;16.37;73.41
54144;BME280;40050;47.324;18.792;2022-09-29T00:49:25;988.98;;;16.38;73.42
54144;BME280;40050;47.324;18.792;2022-09-29T00:51:17;988.94;;;16.37;73.49
54144;BME280;40050;47.324;18.792;2022-09-29T00:53:19;988.46;;;16.04;73.55
54144;BME280;40050;47.324;18.792;2022-09-29T00:55:26;988.92;;;16.38;73.50
54144;BME280;40050;47.324;18.792;2022-09-29T00:57:29;988.91;;;16.33;73.46
54144;BME280;40050;47.324;18.792;2022-09-29T00:59:32;988.95;;;16.37;73.35
54144;BME280;40050;47.324;18.792;2022-09-29T01:01:35;988.94;;;16.36;73.41
54144;BME280;40050;47.324;18.792;2022-09-29T01:03:37;988.94;;;16.34;73.38
54144;BME280;40050;47.324;18.792;2022-09-29T01:05:41;988.97;;;16.32;73.41
54144;BME280;40050;47.324;18.792;2022-09-29T01:07:44;988.94;;;16.30;73.44
54144;BME280;40050;47.324;18.792;2022-09-29T01:09:45;988.95;;;16.32;73.42
54144;BME280;40050;47.324;18.792;2022-09-29T01:11:47;988.94;;;16.30;73.42
54144;BME280;40050;47.324;18.792;2022-09-29T01:13:48;988.90;;;16.31;73.40
54144;BME280;40050;47.324;18.792;2022-09-29T01:15:50;988.89;;;16.31;73.43
54144;BME280;40050;47.324;18.792;2022-09-29T01:17:51;988.83;;;16.31;73.49
54144;BME280;40050;47.324;18.792;2022-09-29T01:20:11;988.79;;;16.28;73.47
54144;BME280;40050;47.324;18.792;2022-09-29T01:29:10;988.70;;;16.18;73.66
54144;BME280;40050;47.324;18.792;2022-09-29T01:33:31;988.69;;;16.16;73.52
54144;BME280;40050;47.324;18.792;2022-09-29T01:40:05;988.64;;;16.17;73.54
54144;BME280;40050;47.324;18.792;2022-09-29T01:42:12;988.71;;;16.16;73.59
54144;BME280;40050;47.324;18.792;2022-09-29T01:44:25;988.67;;;16.13;73.55
54144;BME280;40050;47.324;18.792;2022-09-29T01:48:51;988.64;;;16.15;73.93
54144;BME280;40050;47.324;18.792;2022-09-29T01:50:57;988.55;;;16.14;74.05
54144;BME280;40050;47.324;18.792;2022-09-29T01:53:03;988.61;;;16.18;74.12
54144;BME280;40050;47.324;18.792;2022-09-29T01:55:10;988.63;;;16.18;73.97
54144;BME280;40050;47.324;18.792;2022-09-29T01:57:17;988.40;;;16.05;73.87
54144;BME280;40050;47.324;18.792;2022-09-29T01:59:28;988.65;;;16.19;73.88
54144;BME280;40050;47.324;18.792;2022-09-29T02:01:31;988.61;;;16.14;73.96
54144;BME280;40050;47.324;18.792;2022-09-29T02:03:34;988.63;;;16.09;74.17
54144;BME280;40050;47.324;18.792;2022-09-29T02:05:38;988.63;;;16.08;74.31
54144;BME280;40050;47.324;18.792;2022-09-29T02:07:41;988.66;;;16.08;74.39
54144;BME280;40050;47.324;18.792;2022-09-29T02:09:44;988.66;;;16.10;74.37
54144;BME280;40050;47.324;18.792;2022-09-29T02:11:47;988.75;;;16.07;74.37
54144;BME280;40050;47.324;18.792;2022-09-29T02:14:13;988.74;;;16.06;74.53
54144;BME280;40050;47.324;18.792;2022-09-29T02:16:17;988.75;;;16.05;74.72
54144;BME280;40050;47.324;18.792;2022-09-29T02:18:21;988.79;;;16.07;74.70
54144;BME280;40050;47.324;18.792;2022-09-29T02:20:22;988.87;;;16.10;74.66
54144;BME280;40050;47.324;18.792;2022-09-29T02:22:23;988.90;;;16.08;74.54
54144;BME280;40050;47.324;18.792;2022-09-29T02:24:24;988.95;;;16.07;74.45
54144;BME280;40050;47.324;18.792;2022-09-29T02:26:28;988.95;;;16.01;74.61
54144;BME280;40050;47.324;18.792;2022-09-29T02:28:30;989.07;;;15.98;74.86
54144;BME280;40050;47.324;18.792;2022-09-29T02:30:31;989.07;;;15.94;75.04
54144;BME280;40050;47.324;18.792;2022-09-29T02:32:34;989.14;;;15.93;75.09
54144;BME280;40050;47.324;18.792;2022-09-29T02:34:39;988.82;;;15.70;75.21
54144;BME280;40050;47.324;18.792;2022-09-29T02:39:02;989.13;;;15.90;75.47
54144;BME280;40050;47.324;18.792;2022-09-29T02:41:10;989.11;;;15.88;75.46
54144;BME280;40050;47.324;18.792;2022-09-29T02:45:40;989.00;;;15.90;75.79
54144;BME280;40050;47.324;18.792;2022-09-29T02:54:44;988.99;;;16.03;75.97
54144;BME280;40050;47.324;18.792;2022-09-29T02:57:03;988.91;;;16.02;76.05
54144;BME280;40050;47.324;18.792;2022-09-29T02:59:11;988.98;;;16.04;76.02
54144;BME280;40050;47.324;18.792;2022-09-29T03:01:15;988.93;;;16.02;75.98
54144;BME280;40050;47.324;18.792;2022-09-29T03:03:16;988.91;;;16.04;76.07
54144;BME280;40050;47.324;18.792;2022-09-29T03:05:17;988.94;;;16.05;76.13
54144;BME280;40050;47.324;18.792;2022-09-29T03:07:19;988.99;;;16.08;76.23
54144;BME280;40050;47.324;18.792;2022-09-29T03:09:20;989.02;;;16.10;76.20
54144;BME280;40050;47.324;18.792;2022-09-29T03:11:21;989.02;;;16.10;76.18
54144;BME280;40050;47.324;18.792;2022-09-29T03:13:22;989.00;;;16.12;76.11
54144;BME280;40050;47.324;18.792;2022-09-29T03:15:23;988.94;;;16.10;76.02
54144;BME280;40050;47.324;18.792;2022-09-29T03:17:24;988.95;;;16.13;76.01
54144;BME280;40050;47.324;18.792;2022-09-29T03:19:25;988.90;;;16.14;75.95
54144;BME280;40050;47.324;18.792;2022-09-29T03:21:26;988.83;;;16.13;75.99
54144;BME280;40050;47.324;18.792;2022-09-29T03:23:27;988.79;;;16.17;76.06
54144;BME280;40050;47.324;18.792;2022-09-29T03:25:27;988.80;;;16.17;76.11
54144;BME280;40050;47.324;18.792;2022-09-29T03:27:28;988.79;;;16.19;76.09
54144;BME280;40050;47.324;18.792;2022-09-29T03:29:29;988.75;;;16.17;76.03
54144;BME280;40050;47.324;18.792;2022-09-29T03:31:30;988.71;;;16.19;75.91
54144;BME280;40050;47.324;18.792;2022-09-29T03:33:31;988.63;;;16.13;75.93
54144;BME280;40050;47.324;18.792;2022-09-29T03:35:32;988.64;;;16.16;75.94
54144;BME280;40050;47.324;18.792;2022-09-29T03:37:33;988.68;;;16.17;75.84
54144;BME280;40050;47.324;18.792;2022-09-29T03:39:34;988.70;;;16.16;75.76
54144;BME280;40050;47.324;18.792;2022-09-29T03:41:35;988.61;;;16.10;75.66
54144;BME280;40050;47.324;18.792;2022-09-29T03:43:36;988.59;;;16.10;75.81
54144;BME280;40050;47.324;18.792;2022-09-29T03:45:37;988.59;;;16.12;75.91
54144;BME280;40050;47.324;18.792;2022-09-29T03:47:47;988.64;;;16.10;75.92
54144;BME280;40050;47.324;18.792;2022-09-29T03:49:47;988.55;;;16.08;76.04
54144;BME280;40050;47.324;18.792;2022-09-29T03:51:48;988.38;;;16.00;76.08
54144;BME280;40050;47.324;18.792;2022-09-29T03:53:49;988.52;;;16.12;76.06
54144;BME280;40050;47.324;18.792;2022-09-29T03:55:50;988.48;;;16.15;76.06
54144;BME280;40050;47.324;18.792;2022-09-29T03:57:51;988.47;;;16.16;75.88
54144;BME280;40050;47.324;18.792;2022-09-29T03:59:52;988.54;;;16.15;75.88
54144;BME280;40050;47.324;18.792;2022-09-29T04:01:53;988.48;;;16.14;75.93
54144;BME280;40050;47.324;18.792;2022-09-29T04:03:54;988.51;;;16.17;75.93
54144;BME280;40050;47.324;18.792;2022-09-29T04:05:55;988.51;;;16.18;75.87
54144;BME280;40050;47.324;18.792;2022-09-29T04:07:56;988.52;;;16.18;75.86
54144;BME280;40050;47.324;18.792;2022-09-29T04:09:57;988.53;;;16.18;75.84
54144;BME280;40050;47.324;18.792;2022-09-29T04:11:58;988.27;;;15.98;75.86
54144;BME280;40050;47.324;18.792;2022-09-29T04:13:58;988.50;;;16.13;75.97
54144;BME280;40050;47.324;18.792;2022-09-29T04:16:03;988.53;;;16.13;76.04
54144;BME280;40050;47.324;18.792;2022-09-29T04:18:05;988.52;;;16.11;76.05
54144;BME280;40050;47.324;18.792;2022-09-29T04:20:06;988.53;;;16.13;76.08
54144;BME280;40050;47.324;18.792;2022-09-29T04:22:07;988.50;;;16.14;76.07
54144;BME280;40050;47.324;18.792;2022-09-29T04:24:08;988.49;;;16.15;76.07
54144;BME280;40050;47.324;18.792;2022-09-29T04:26:09;988.51;;;16.15;76.01
54144;BME280;40050;47.324;18.792;2022-09-29T04:28:10;988.52;;;16.15;76.04
54144;BME280;40050;47.324;18.792;2022-09-29T04:30:11;988.52;;;16.16;76.03
54144;BME280;40050;47.324;18.792;2022-09-29T04:32:12;988.54;;;16.17;76.02
54144;BME280;40050;47.324;18.792;2022-09-29T04:34:13;988.55;;;16.17;76.12
54144;BME280;40050;47.324;18.792;2022-09-29T04:36:14;988.59;;;16.17;76.18
54144;BME280;40050;47.324;18.792;2022-09-29T04:38:15;988.39;;;16.05;76.18
54144;BME280;40050;47.324;18.792;2022-09-29T04:40:16;988.47;;;16.09;76.25
54144;BME280;40050;47.324;18.792;2022-09-29T04:42:17;988.65;;;16.18;76.33
54144;BME280;40050;47.324;18.792;2022-09-29T04:44:18;988.67;;;16.21;76.34
54144;BME280;40050;47.324;18.792;2022-09-29T04:46:19;988.68;;;16.20;76.35
54144;BME280;40050;47.324;18.792;2022-09-29T04:48:20;988.72;;;16.22;76.37
54144;BME280;40050;47.324;18.792;2022-09-29T04:50:21;988.74;;;16.24;76.41
54144;BME280;40050;47.324;18.792;2022-09-29T04:52:22;988.75;;;16.23;76.41
54144;BME280;40050;47.324;18.792;2022-09-29T04:54:23;988.76;;;16.25;76.47
54144;BME280;40050;47.324;18.792;2022-09-29T04:56:24;988.77;;;16.25;76.48
54144;BME280;40050;47.324;18.792;2022-09-29T04:58:25;988.77;;;16.25;76.50
54144;BME280;40050;47.324;18.792;2022-09-29T05:00:26;988.79;;;16.27;76.26
54144;BME280;40050;47.324;18.792;2022-09-29T05:02:27;988.81;;;16.25;76.15
54144;BME280;40050;47.324;18.792;2022-09-29T05:04:28;988.86;;;16.23;75.99
54144;BME280;40050;47.324;18.792;2022-09-29T05:06:29;988.97;;;16.23;75.92
54144;BME280;40050;47.324;18.792;2022-09-29T05:08:30;988.97;;;16.22;75.87
54144;BME280;40050;47.324;18.792;2022-09-29T05:10:31;988.99;;;16.21;75.89
54144;BME280;40050;47.324;18.792;2022-09-29T05:12:32;988.99;;;16.17;75.75
54144;BME280;40050;47.324;18.792;2022-09-29T05:14:33;988.98;;;16.13;75.61
54144;BME280;40050;47.324;18.792;2022-09-29T05:16:34;988.99;;;16.12;75.62
54144;BME280;40050;47.324;18.792;2022-09-29T05:18:35;988.94;;;16.07;75.64
54144;BME280;40050;47.324;18.792;2022-09-29T05:20:36;988.96;;;16.03;75.74
54144;BME280;40050;47.324;18.792;2022-09-29T05:22:36;988.96;;;16.03;75.37
54144;BME280;40050;47.324;18.792;2022-09-29T05:24:37;988.98;;;16.01;75.06
54144;BME280;40050;47.324;18.792;2022-09-29T05:26:38;988.99;;;16.01;74.47
54144;BME280;40050;47.324;18.792;2022-09-29T05:28:43;989.00;;;15.93;74.55
54144;BME280;40050;47.324;18.792;2022-09-29T05:30:44;988.99;;;15.88;74.77
54144;BME280;40050;47.324;18.792;2022-09-29T05:32:45;988.93;;;15.84;74.47
54144;BME280;40050;47.324;18.792;2022-09-29T05:34:46;988.94;;;15.82;74.53
54144;BME280;40050;47.324;18.792;2022-09-29T05:36:47;989.05;;;15.80;74.53
54144;BME280;40050;47.324;18.792;2022-09-29T05:38:48;989.07;;;15.75;74.58
54144;BME280;40050;47.324;18.792;2022-09-29T05:40:49;989.14;;;15.72;74.37
54144;BME280;40050;47.324;18.792;2022-09-29T05:42:50;989.15;;;15.67;74.70
54144;BME280;40050;47.324;18.792;2022-09-29T05:44:51;989.20;;;15.63;74.72
54144;BME280;40050;47.324;18.792;2022-09-29T05:46:52;989.22;;;15.61;74.57
54144;BME280;40050;47.324;18.792;2022-09-29T05:48:53;989.25;;;15.59;74.61
54144;BME280;40050;47.324;18.792;2022-09-29T05:50:54;989.16;;;15.55;74.50
54144;BME280;40050;47.324;18.792;2022-09-29T05:52:55;989.15;;;15.50;74.37
54144;BME280;40050;47.324;18.792;2022-09-29T05:54:56;989.25;;;15.49;74.34
54144;BME280;40050;47.324;18.792;2022-09-29T05:56:57;989.16;;;15.44;74.61
54144;BME280;40050;47.324;18.792;2022-09-29T05:58:57;989.28;;;15.50;74.69
54144;BME280;40050;47.324;18.792;2022-09-29T06:00:58;989.34;;;15.47;74.29
54144;BME280;40050;47.324;18.792;2022-09-29T06:02:59;989.30;;;15.42;74.27
54144;BME280;40050;47.324;18.792;2022-09-29T06:05:00;989.40;;;15.40;74.27
54144;BME280;40050;47.324;18.792;2022-09-29T06:07:01;989.42;;;15.36;74.48
54144;BME280;40050;47.324;18.792;2022-09-29T06:09:02;989.42;;;15.35;74.61
54144;BME280;40050;47.324;18.792;2022-09-29T06:11:04;989.44;;;15.38;74.72
54144;BME280;40050;47.324;18.792;2022-09-29T06:13:05;989.43;;;15.38;74.90
54144;BME280;40050;47.324;18.792;2022-09-29T06:15:06;989.37;;;15.38;75.01
54144;BME280;40050;47.324;18.792;2022-09-29T06:17:07;989.40;;;15.41;74.97
54144;BME280;40050;47.324;18.792;2022-09-29T06:19:08;989.40;;;15.41;74.90
54144;BME280;40050;47.324;18.792;2022-09-29T06:21:10;989.42;;;15.44;74.77
54144;BME280;40050;47.324;18.792;2022-09-29T06:23:11;989.42;;;15.42;74.66
54144;BME280;40050;47.324;18.792;2022-09-29T06:25:12;989.48;;;15.41;74.79
54144;BME280;40050;47.324;18.792;2022-09-29T06:27:13;989.55;;;15.41;74.73
54144;BME280;40050;47.324;18.792;2022-09-29T06:29:14;989.57;;;15.38;74.77
54144;BME280;40050;47.324;18.792;2022-09-29T06:31:18;989.62;;;15.38;74.73
54144;BME280;40050;47.324;18.792;2022-09-29T06:33:20;989.68;;;15.37;74.96
54144;BME280;40050;47.324;18.792;2022-09-29T06:35:21;989.64;;;15.33;74.84
54144;BME280;40050;47.324;18.792;2022-09-29T06:37:22;989.65;;;15.37;74.70
54144;BME280;40050;47.324;18.792;2022-09-29T06:39:22;989.59;;;15.31;74.86
54144;BME280;40050;47.324;18.792;2022-09-29T06:41:23;989.52;;;15.31;74.88
54144;BME280;40050;47.324;18.792;2022-09-29T06:43:24;989.56;;;15.30;74.76
54144;BME280;40050;47.324;18.792;2022-09-29T06:45:25;989.59;;;15.28;75.15
54144;BME280;40050;47.324;18.792;2022-09-29T06:47:26;989.63;;;15.31;75.08
54144;BME280;40050;47.324;18.792;2022-09-29T06:49:27;989.58;;;15.28;75.22
54144;BME280;40050;47.324;18.792;2022-09-29T06:51:28;989.62;;;15.30;75.29
54144;BME280;40050;47.324;18.792;2022-09-29T06:53:29;989.57;;;15.30;74.91
54144;BME280;40050;47.324;18.792;2022-09-29T06:55:30;989.63;;;15.32;75.30
54144;BME280;40050;47.324;18.792;2022-09-29T06:57:31;989.62;;;15.32;75.44
54144;BME280;40050;47.324;18.792;2022-09-29T06:59:32;989.70;;;15.40;76.16
54144;BME280;40050;47.324;18.792;2022-09-29T07:01:33;989.76;;;15.47;76.48
54144;BME280;40050;47.324;18.792;2022-09-29T07:03:34;989.77;;;15.53;76.62
54144;BME280;40050;47.324;18.792;2022-09-29T07:05:35;989.80;;;15.56;76.59
54144;BME280;40050;47.324;18.792;2022-09-29T07:07:36;989.78;;;15.61;76.15
54144;BME280;40050;47.324;18.792;2022-09-29T07:09:36;989.78;;;15.63;75.82
54144;BME280;40050;47.324;18.792;2022-09-29T07:11:37;989.77;;;15.67;75.74
54144;BME280;40050;47.324;18.792;2022-09-29T07:13:38;989.77;;;15.69;75.88
54144;BME280;40050;47.324;18.792;2022-09-29T07:15:39;989.80;;;15.72;76.01
54144;BME280;40050;47.324;18.792;2022-09-29T07:17:40;989.86;;;15.76;75.87
54144;BME280;40050;47.324;18.792;2022-09-29T07:19:41;989.90;;;15.81;76.05
54144;BME280;40050;47.324;18.792;2022-09-29T07:21:42;989.88;;;15.87;75.60
54144;BME280;40050;47.324;18.792;2022-09-29T07:23:43;989.82;;;15.86;75.79
54144;BME280;40050;47.324;18.792;2022-09-29T07:25:45;989.87;;;15.94;76.36
54144;BME280;40050;47.324;18.792;2022-09-29T07:27:46;989.91;;;16.03;76.98
54144;BME280;40050;47.324;18.792;2022-09-29T07:29:47;989.95;;;16.11;76.63
54144;BME280;40050;47.324;18.792;2022-09-29T07:31:48;989.98;;;16.16;75.75
54144;BME280;40050;47.324;18.792;2022-09-29T07:33:49;989.97;;;16.22;75.96
54144;BME280;40050;47.324;18.792;2022-09-29T07:35:53;989.96;;;16.23;75.45
54144;BME280;40050;47.324;18.792;2022-09-29T07:37:54;989.97;;;16.31;75.16
54144;BME280;40050;47.324;18.792;2022-09-29T07:39:55;989.98;;;16.34;74.64
54144;BME280;40050;47.324;18.792;2022-09-29T07:41:56;990.00;;;16.37;74.29
54144;BME280;40050;47.324;18.792;2022-09-29T07:43:57;990.00;;;16.38;74.20
54144;BME280;40050;47.324;18.792;2022-09-29T07:45:58;990.00;;;16.38;74.10
54144;BME280;40050;47.324;18.792;2022-09-29T07:47:59;989.97;;;16.40;74.42
54144;BME280;40050;47.324;18.792;2022-09-29T07:50:00;989.99;;;16.43;74.50
54144;BME280;40050;47.324;18.792;2022-09-29T07:52:01;990.06;;;16.51;74.69
54144;BME280;40050;47.324;18.792;2022-09-29T07:54:02;990.06;;;16.56;74.85
54144;BME280;40050;47.324;18.792;2022-09-29T07:56:07;990.06;;;16.64;75.09
54144;BME280;40050;47.324;18.792;2022-09-29T07:58:08;990.10;;;16.72;75.20
54144;BME280;40050;47.324;18.792;2022-09-29T08:00:09;990.05;;;16.77;74.55
54144;BME280;40050;47.324;18.792;2022-09-29T08:02:10;990.07;;;16.83;74.69
54144;BME280;40050;47.324;18.792;2022-09-29T08:04:11;990.08;;;16.92;73.30
54144;BME280;40050;47.324;18.792;2022-09-29T08:06:12;990.13;;;16.97;73.81
54144;BME280;40050;47.324;18.792;2022-09-29T08:08:13;990.18;;;17.03;72.88
54144;BME280;40050;47.324;18.792;2022-09-29T08:10:14;990.20;;;17.08;72.96
54144;BME280;40050;47.324;18.792;2022-09-29T08:12:15;990.25;;;17.20;73.77
54144;BME280;40050;47.324;18.792;2022-09-29T08:14:16;990.23;;;17.33;73.92
54144;BME280;40050;47.324;18.792;2022-09-29T08:16:17;990.18;;;17.50;73.71
54144;BME280;40050;47.324;18.792;2022-09-29T08:18:18;990.22;;;17.70;73.79
54144;BME280;40050;47.324;18.792;2022-09-29T08:20:19;990.22;;;17.94;74.10
54144;BME280;40050;47.324;18.792;2022-09-29T08:22:20;990.16;;;18.16;73.26
54144;BME280;40050;47.324;18.792;2022-09-29T08:24:21;990.17;;;18.30;72.41
54144;BME280;40050;47.324;18.792;2022-09-29T08:26:22;990.16;;;18.42;71.56
54144;BME280;40050;47.324;18.792;2022-09-29T08:28:23;990.23;;;18.47;70.46
54144;BME280;40050;47.324;18.792;2022-09-29T08:30:24;990.19;;;18.53;69.75
54144;BME280;40050;47.324;18.792;2022-09-29T08:32:24;990.23;;;18.57;68.63
54144;BME280;40050;47.324;18.792;2022-09-29T08:34:25;990.25;;;18.64;69.31
54144;BME280;40050;47.324;18.792;2022-09-29T08:36:26;990.28;;;18.73;68.84
54144;BME280;40050;47.324;18.792;2022-09-29T08:38:27;990.20;;;18.81;67.38
54144;BME280;40050;47.324;18.792;2022-09-29T08:40:29;990.22;;;18.96;67.78
54144;BME280;40050;47.324;18.792;2022-09-29T08:44:54;990.27;;;19.21;67.18
54144;BME280;40050;47.324;18.792;2022-09-29T08:47:03;990.17;;;19.35;68.25
54144;BME280;40050;47.324;18.792;2022-09-29T08:49:08;990.20;;;19.55;67.84
54144;BME280;40050;47.324;18.792;2022-09-29T08:51:28;990.26;;;19.77;68.28
54144;BME280;40050;47.324;18.792;2022-09-29T08:53:27;990.15;;;19.77;66.72
54144;BME280;40050;47.324;18.792;2022-09-29T08:55:40;990.47;;;20.06;64.98
54144;BME280;40050;47.324;18.792;2022-09-29T08:57:42;990.53;;;20.07;64.73
54144;BME280;40050;47.324;18.792;2022-09-29T08:59:50;990.47;;;20.11;64.52
54144;BME280;40050;47.324;18.792;2022-09-29T09:08:53;990.65;;;20.75;63.16
54144;BME280;40050;47.324;18.792;2022-09-29T09:11:19;990.60;;;20.84;63.44
54144;BME280;40050;47.324;18.792;2022-09-29T09:13:56;990.66;;;20.85;61.97
54144;BME280;40050;47.324;18.792;2022-09-29T09:20:21;990.71;;;20.90;61.56
54144;BME280;40050;47.324;18.792;2022-09-29T09:22:47;990.72;;;21.01;61.54
54144;BME280;40050;47.324;18.792;2022-09-29T09:26:55;990.71;;;21.33;60.42
54144;BME280;40050;47.324;18.792;2022-09-29T09:29:02;990.74;;;21.56;59.44
54144;BME280;40050;47.324;18.792;2022-09-29T09:31:12;990.79;;;21.55;59.25
54144;BME280;40050;47.324;18.792;2022-09-29T09:33:20;990.74;;;21.43;58.01
54144;BME280;40050;47.324;18.792;2022-09-29T09:37:47;990.83;;;21.57;58.29
54144;BME280;40050;47.324;18.792;2022-09-29T09:39:56;990.76;;;21.63;57.47
54144;BME280;40050;47.324;18.792;2022-09-29T09:41:58;990.67;;;21.72;57.55
54144;BME280;40050;47.324;18.792;2022-09-29T09:46:19;990.65;;;21.98;57.50
54144;BME280;40050;47.324;18.792;2022-09-29T09:48:34;990.74;;;22.12;56.28
54144;BME280;40050;47.324;18.792;2022-09-29T09:50:38;990.80;;;22.23;56.23
54144;BME280;40050;47.324;18.792;2022-09-29T09:52:46;990.82;;;22.35;55.83
54144;BME280;40050;47.324;18.792;2022-09-29T09:54:49;990.74;;;22.36;55.13
54144;BME280;40050;47.324;18.792;2022-09-29T09:57:08;990.82;;;22.50;55.42
54144;BME280;40050;47.324;18.792;2022-09-29T09:59:17;990.76;;;22.50;53.16
54144;BME280;40050;47.324;18.792;2022-09-29T10:01:22;990.78;;;22.46;53.63
54144;BME280;40050;47.324;18.792;2022-09-29T10:03:23;990.81;;;22.48;54.08
54144;BME280;40050;47.324;18.792;2022-09-29T10:05:57;990.81;;;22.57;53.42
54144;BME280;40050;47.324;18.792;2022-09-29T10:07:43;990.80;;;22.57;53.23
54144;BME280;40050;47.324;18.792;2022-09-29T10:09:44;990.83;;;22.59;52.87
54144;BME280;40050;47.324;18.792;2022-09-29T10:11:45;990.83;;;22.60;54.09
54144;BME280;40050;47.324;18.792;2022-09-29T10:13:46;990.86;;;22.70;52.26
54144;BME280;40050;47.324;18.792;2022-09-29T10:15:50;990.91;;;22.69;51.78
54144;BME280;40050;47.324;18.792;2022-09-29T10:18:00;990.89;;;22.66;51.59
54144;BME280;40050;47.324;18.792;2022-09-29T10:20:04;990.92;;;22.71;51.62
54144;BME280;40050;47.324;18.792;2022-09-29T10:22:13;990.90;;;22.65;51.92
54144;BME280;40050;47.324;18.792;2022-09-29T10:24:23;990.88;;;22.57;52.39
54144;BME280;40050;47.324;18.792;2022-09-29T10:26:35;990.76;;;22.58;51.67
54144;BME280;40050;47.324;18.792;2022-09-29T10:28:39;990.73;;;22.51;52.24
54144;BME280;40050;47.324;18.792;2022-09-29T10:30:41;990.78;;;22.49;51.23
54144;BME280;40050;47.324;18.792;2022-09-29T10:32:42;990.83;;;22.51;52.60
54144;BME280;40050;47.324;18.792;2022-09-29T10:34:45;990.86;;;22.49;50.83
54144;BME280;40050;47.324;18.792;2022-09-29T10:37:17;990.93;;;22.45;52.83
54144;BME280;40050;47.324;18.792;2022-09-29T10:39:00;990.92;;;22.48;50.89
54144;BME280;40050;47.324;18.792;2022-09-29T10:41:02;990.91;;;22.40;51.21
54144;BME280;40050;47.324;18.792;2022-09-29T10:43:23;990.95;;;22.35;51.70
54144;BME280;40050;47.324;18.792;2022-09-29T10:45:27;990.86;;;22.29;51.24
54144;BME280;40050;47.324;18.792;2022-09-29T10:47:28;990.93;;;22.36;51.79
54144;BME280;40050;47.324;18.792;2022-09-29T10:49:29;990.91;;;22.41;52.01
54144;BME280;40050;47.324;18.792;2022-09-29T10:51:30;990.88;;;22.41;51.59
54144;BME280;40050;47.324;18.792;2022-09-29T10:53:32;990.92;;;22.41;51.39
54144;BME280;40050;47.324;18.792;2022-09-29T10:55:35;990.98;;;22.40;51.45
54144;BME280;40050;47.324;18.792;2022-09-29T10:57:46;991.05;;;22.38;50.71
54144;BME280;40050;47.324;18.792;2022-09-29T10:59:48;991.03;;;22.25;50.53
54144;BME280;40050;47.324;18.792;2022-09-29T11:01:51;991.03;;;22.13;51.82
54144;BME280;40050;47.324;18.792;2022-09-29T11:03:58;991.02;;;22.14;51.50
54144;BME280;40050;47.324;18.792;2022-09-29T11:06:12;991.00;;;22.06;51.60
54144;BME280;40050;47.324;18.792;2022-09-29T11:08:13;990.99;;;21.99;51.91
54144;BME280;40050;47.324;18.792;2022-09-29T11:12:39;991.06;;;21.80;51.34
54144;BME280;40050;47.324;18.792;2022-09-29T11:14:41;991.02;;;21.78;52.55
54144;BME280;40050;47.324;18.792;2022-09-29T11:16:42;991.03;;;21.82;52.07
54144;BME280;40050;47.324;18.792;2022-09-29T11:19:02;991.00;;;21.74;51.72
54144;BME280;40050;47.324;18.792;2022-09-29T11:21:13;990.94;;;21.64;51.76
54144;BME280;40050;47.324;18.792;2022-09-29T11:23:36;990.93;;;21.54;52.63
54144;BME280;40050;47.324;18.792;2022-09-29T11:27:51;990.96;;;21.47;51.77
54144;BME280;40050;47.324;18.792;2022-09-29T11:30:13;990.92;;;21.31;53.10
54144;BME280;40050;47.324;18.792;2022-09-29T11:32:28;990.92;;;21.24;54.03
54144;BME280;40050;47.324;18.792;2022-09-29T11:39:08;991.05;;;21.27;54.86
54144;BME280;40050;47.324;18.792;2022-09-29T11:54:56;991.04;;;20.65;55.12
54144;BME280;40050;47.324;18.792;2022-09-29T11:59:22;990.98;;;20.58;55.45
54144;BME280;40050;47.324;18.792;2022-09-29T12:08:41;990.84;;;20.60;57.00
54144;BME280;40050;47.324;18.792;2022-09-29T12:10:43;990.82;;;20.67;56.99
54144;BME280;40050;47.324;18.792;2022-09-29T12:12:48;990.89;;;20.73;56.63
54144;BME280;40050;47.324;18.792;2022-09-29T12:15:09;990.83;;;20.78;57.29
54144;BME280;40050;47.324;18.792;2022-09-29T12:17:15;990.75;;;20.74;57.62
54144;BME280;40050;47.324;18.792;2022-09-29T12:19:17;990.92;;;20.84;56.38
54144;BME280;40050;47.324;18.792;2022-09-29T12:21:23;990.98;;;20.90;56.31